createdAt,value
2022-08-26T00:00:36.035Z,100836.84
2022-08-26T00:03:40.849Z,100831.56
2022-08-26T00:06:46.268Z,100829.91
2022-08-26T00:09:49.951Z,100822.88
2022-08-26T00:12:52.462Z,100830.22
2022-08-26T00:15:55.033Z,100824.25
2022-08-26T00:18:57.553Z,100815.81
2022-08-26T00:22:00.168Z,100820.88
2022-08-26T00:25:02.471Z,100809.06
2022-08-26T00:28:06.390Z,100812.53
2022-08-26T00:31:10.899Z,100815.41
2022-08-26T00:34:15.339Z,100826.44
2022-08-26T00:37:18.635Z,100816.59
2022-08-26T00:40:45.938Z,100823.03
2022-08-26T00:43:48.223Z,100818.75
2022-08-26T00:46:54.914Z,100813.38
2022-08-26T00:49:57.464Z,100822.47
2022-08-26T00:53:01.264Z,100821.69
2022-08-26T00:56:13.361Z,100822.75
2022-08-26T00:59:17.227Z,100822.97
2022-08-26T01:02:21.078Z,100818.44
2022-08-26T01:05:24.394Z,100819.50
2022-08-26T01:08:27.147Z,100816.06
2022-08-26T01:11:31.091Z,100817.94
2022-08-26T01:14:35.621Z,100819.88
2022-08-26T01:17:39.658Z,100823.66
2022-08-26T01:20:41.835Z,100818.19
2022-08-26T01:23:48.435Z,100823.66
2022-08-26T01:26:51.341Z,100819.72
2022-08-26T01:29:53.658Z,100810.72
2022-08-26T01:32:58.032Z,100823.25
2022-08-26T01:36:00.891Z,100824.25
2022-08-26T01:39:05.942Z,100821.47
2022-08-26T01:42:14.106Z,100826.88
2022-08-26T01:45:31.188Z,100831.47
2022-08-26T01:48:35.537Z,100830.66
2022-08-26T01:51:38.810Z,100834.34
2022-08-26T01:54:41.911Z,100833.50
2022-08-26T01:57:51.758Z,100825.28
2022-08-26T02:00:58.911Z,100823.69
2022-08-26T02:04:18.058Z,100830.94
2022-08-26T02:07:21.609Z,100834.66
2022-08-26T02:10:24.157Z,100838.28
2022-08-26T02:13:31.367Z,100828.47
2022-08-26T02:16:37.833Z,100838.16
2022-08-26T02:19:47.211Z,100823.09
2022-08-26T02:22:49.935Z,100826.69
2022-08-26T02:26:07.146Z,100823.16
2022-08-26T02:29:21.387Z,100824.25
2022-08-26T02:32:24.199Z,100826.94
2022-08-26T02:35:26.519Z,100829.59
2022-08-26T02:38:29.681Z,100824.84
2022-08-26T02:41:32.293Z,100823.19
2022-08-26T02:44:35.072Z,100825.00
2022-08-26T02:47:37.475Z,100818.69
2022-08-26T02:50:40.202Z,100821.41
2022-08-26T02:53:42.776Z,100830.28
2022-08-26T02:56:45.517Z,100823.91
2022-08-26T02:59:47.878Z,100820.34
2022-08-26T03:02:50.373Z,100817.63
2022-08-26T03:05:54.575Z,100825.59
2022-08-26T03:08:56.741Z,100819.41
2022-08-26T03:11:59.323Z,100819.53
2022-08-26T03:15:01.699Z,100815.09
2022-08-26T03:18:04.829Z,100816.28
2022-08-26T03:21:08.562Z,100826.06
2022-08-26T03:24:11.388Z,100825.19
2022-08-26T03:27:14.375Z,100822.53
2022-08-26T03:30:35.482Z,100823.38
2022-08-26T03:33:37.622Z,100826.28
2022-08-26T03:36:40.871Z,100820.13
2022-08-26T03:39:43.855Z,100821.81
2022-08-26T03:42:46.244Z,100813.72
2022-08-26T03:45:48.434Z,100818.09
2022-08-26T03:48:53.555Z,100826.16
2022-08-26T03:51:55.883Z,100816.50
2022-08-26T03:54:58.362Z,100817.44
2022-08-26T03:58:01.167Z,100828.16
2022-08-26T04:01:04.093Z,100822.00
2022-08-26T04:04:06.569Z,100821.88
2022-08-26T04:07:09.519Z,100822.88
2022-08-26T04:10:14.765Z,100824.63
2022-08-26T04:13:21.601Z,100822.78
2022-08-26T04:16:23.774Z,100821.72
2022-08-26T04:19:28.421Z,100817.97
2022-08-26T04:22:30.527Z,100816.78
2022-08-26T04:25:32.826Z,100810.31
2022-08-26T04:28:34.924Z,100811.84
2022-08-26T04:31:38.178Z,100811.56
2022-08-26T04:34:40.873Z,100814.00
2022-08-26T04:37:44.157Z,100803.78
2022-08-26T04:40:46.683Z,100810.84
2022-08-26T04:43:50.362Z,100810.41
2022-08-26T04:46:54.238Z,100816.47
2022-08-26T04:49:57.856Z,100810.69
2022-08-26T04:53:00.217Z,100811.31
2022-08-26T04:56:02.794Z,100807.41
2022-08-26T04:59:16.825Z,100803.56
2022-08-26T05:02:20.582Z,100807.03
2022-08-26T05:05:22.705Z,100806.81
2022-08-26T05:08:25.537Z,100813.72
2022-08-26T05:11:27.797Z,100807.13
2022-08-26T05:14:31.555Z,100813.16
2022-08-26T05:17:36.554Z,100809.34
2022-08-26T05:20:40.642Z,100808.19
2022-08-26T05:23:42.856Z,100806.16
2022-08-26T05:26:45.261Z,100812.13
2022-08-26T05:29:48.194Z,100810.03
2022-08-26T05:32:57.308Z,100806.09
2022-08-26T05:36:07.522Z,100809.97
2022-08-26T05:39:11.591Z,100808.81
2022-08-26T05:42:13.618Z,100816.81
2022-08-26T05:45:16.010Z,100815.53
2022-08-26T05:48:24.105Z,100813.13
2022-08-26T05:51:27.372Z,100817.47
2022-08-26T05:54:34.771Z,100819.00
2022-08-26T05:57:42.289Z,100816.75
2022-08-26T06:00:45.242Z,100820.38
2022-08-26T06:03:49.985Z,100810.59
2022-08-26T06:06:52.379Z,100810.13
2022-08-26T06:10:05.503Z,100810.59
2022-08-26T06:13:18.372Z,100810.06
2022-08-26T06:16:23.341Z,100816.41
2022-08-26T06:19:26.268Z,100809.19
2022-08-26T06:22:54.340Z,100813.91
2022-08-26T06:25:57.838Z,100810.47
2022-08-26T06:29:00.097Z,100813.69
2022-08-26T06:32:04.818Z,100818.97
2022-08-26T06:35:07.446Z,100816.09
2022-08-26T06:38:15.602Z,100835.31
2022-08-26T06:41:21.059Z,100814.59
2022-08-26T06:44:23.300Z,100816.84
2022-08-26T06:47:25.827Z,100811.38
2022-08-26T06:50:30.616Z,100815.97
2022-08-26T06:53:33.468Z,100813.78
2022-08-26T06:56:39.668Z,100816.00
2022-08-26T06:59:42.537Z,100820.75
2022-08-26T07:02:46.889Z,100805.38
2022-08-26T07:05:49.630Z,100806.03
2022-08-26T07:09:04.971Z,100798.66
2022-08-26T07:12:07.657Z,100791.28
2022-08-26T07:15:10.394Z,100803.13
2022-08-26T07:18:12.732Z,100804.19
2022-08-26T07:21:17.307Z,100809.66
2022-08-26T07:24:20.596Z,100797.63
2022-08-26T07:27:23.267Z,100798.81
2022-08-26T07:30:25.722Z,100798.28
2022-08-26T07:33:29.537Z,100789.34
2022-08-26T07:36:32.469Z,100793.44
2022-08-26T07:39:34.980Z,100787.84
2022-08-26T07:42:37.429Z,100787.56
2022-08-26T07:45:39.604Z,100791.22
2022-08-26T07:48:45.996Z,100792.34
2022-08-26T07:51:49.768Z,100786.28
2022-08-26T07:54:52.069Z,100778.88
2022-08-26T07:57:54.152Z,100770.88
2022-08-26T08:00:57.144Z,100778.25
2022-08-26T08:04:01.137Z,100774.63
2022-08-26T08:07:04.965Z,100776.75
2022-08-26T08:10:11.507Z,100776.25
2022-08-26T08:13:14.480Z,100767.47
2022-08-26T08:16:17.171Z,100771.53
2022-08-26T08:19:19.467Z,100763.16
2022-08-26T08:22:23.656Z,100763.63
2022-08-26T08:25:26.980Z,100757.91
2022-08-26T08:28:29.213Z,100759.56
2022-08-26T08:34:56.355Z,100762.09
2022-08-26T08:37:58.754Z,100754.22
2022-08-26T08:41:02.130Z,100747.41
2022-08-26T08:44:12.208Z,100758.19
2022-08-26T08:47:25.085Z,100753.72
2022-08-26T08:50:37.808Z,100766.88
2022-08-26T08:53:43.303Z,100748.34
2022-08-26T08:56:57.978Z,100760.69
2022-08-26T09:00:09.187Z,100754.44
2022-08-26T09:03:24.048Z,100755.19
2022-08-26T09:06:27.708Z,100760.34
2022-08-26T09:09:51.938Z,100762.94
2022-08-26T09:12:54.754Z,100754.78
2022-08-26T09:16:03.116Z,100749.63
2022-08-26T09:19:18.806Z,100755.72
2022-08-26T09:22:35.940Z,100750.50
2022-08-26T09:26:00.064Z,100754.06
2022-08-26T09:29:09.949Z,100745.50
2022-08-26T09:32:16.245Z,100740.09
2022-08-26T09:35:35.814Z,100739.81
2022-08-26T09:38:37.907Z,100735.41
2022-08-26T09:41:41.925Z,100742.34
2022-08-26T09:44:55.926Z,100735.63
2022-08-26T09:48:01.323Z,100736.69
2022-08-26T09:51:32.671Z,100731.75
2022-08-26T09:54:35.578Z,100727.41
2022-08-26T09:57:52.122Z,100724.63
2022-08-26T10:00:57.312Z,100714.72
2022-08-26T10:04:10.309Z,100725.63
2022-08-26T10:07:13.421Z,100719.63
2022-08-26T10:10:39.884Z,100716.56
2022-08-26T10:13:46.633Z,100704.06
2022-08-26T10:16:54.433Z,100705.03
2022-08-26T10:20:01.363Z,100713.88
2022-08-26T10:23:16.313Z,100712.53
2022-08-26T10:26:30.727Z,100718.03
2022-08-26T10:29:42.853Z,100710.78
2022-08-26T10:32:53.921Z,100713.03
2022-08-26T10:36:03.854Z,100711.09
2022-08-26T10:39:09.849Z,100705.59
2022-08-26T10:42:42.680Z,100702.16
2022-08-26T10:45:51.383Z,100704.41
2022-08-26T10:48:56.534Z,100696.22
2022-08-26T10:52:18.549Z,100696.25
2022-08-26T10:55:29.392Z,100687.91
2022-08-26T10:58:37.166Z,100691.84
2022-08-26T11:01:51.001Z,100685.16
2022-08-26T11:04:57.811Z,100680.09
2022-08-26T11:08:19.325Z,100682.84
2022-08-26T11:11:45.387Z,100673.06
2022-08-26T11:14:58.476Z,100674.19
2022-08-26T11:18:07.368Z,100675.44
2022-08-26T11:21:47.791Z,100678.47
2022-08-26T11:24:54.751Z,100664.28
2022-08-26T11:27:59.722Z,100667.44
2022-08-26T11:31:04.477Z,100665.38
2022-08-26T11:34:10.763Z,100668.97
2022-08-26T11:37:15.878Z,100660.78
2022-08-26T11:40:21.655Z,100665.25
2022-08-26T11:43:29.892Z,100657.69
2022-08-26T11:46:37.308Z,100652.75
2022-08-26T11:49:39.772Z,100642.34
2022-08-26T11:53:06.588Z,100645.03
2022-08-26T11:56:15.737Z,100635.47
2022-08-26T11:59:23.989Z,100630.47
2022-08-26T12:02:26.954Z,100619.50
2022-08-26T12:05:36.236Z,100625.25
2022-08-26T12:08:43.812Z,100627.34
2022-08-26T12:11:46.078Z,100617.81
2022-08-26T12:14:49.270Z,100614.34
2022-08-26T12:17:54.571Z,100623.53
2022-08-26T12:21:00.082Z,100618.81
2022-08-26T12:24:04.019Z,100616.69
2022-08-26T12:27:22.962Z,100603.06
2022-08-26T12:30:25.998Z,100600.09
2022-08-26T12:33:29.269Z,100590.41
2022-08-26T12:36:37.352Z,100595.56
2022-08-26T12:39:43.321Z,100596.63
2022-08-26T12:42:45.454Z,100594.38
2022-08-26T12:46:00.042Z,100588.25
2022-08-26T12:49:03.081Z,100589.69
2022-08-26T12:52:07.552Z,100584.50
2022-08-26T12:55:31.475Z,100587.31
2022-08-26T12:58:38.503Z,100576.72
2022-08-26T13:01:44.718Z,100574.81
2022-08-26T13:04:47.337Z,100565.94
2022-08-26T13:08:12.483Z,100567.03
2022-08-26T13:11:20.572Z,100566.41
2022-08-26T13:14:24.870Z,100557.34
2022-08-26T13:17:28.834Z,100557.59
2022-08-26T13:20:32.348Z,100550.56
2022-08-26T13:23:35.445Z,100545.94
2022-08-26T13:26:44.809Z,100547.69
2022-08-26T13:29:47.258Z,100554.63
2022-08-26T13:32:53.243Z,100543.00
2022-08-26T13:35:56.485Z,100535.41
2022-08-26T13:38:59.034Z,100541.34
2022-08-26T13:42:01.535Z,100536.84
2022-08-26T13:45:04.761Z,100533.00
2022-08-26T13:48:08.320Z,100526.50
2022-08-26T13:51:10.567Z,100533.03
2022-08-26T13:54:12.905Z,100529.78
2022-08-26T13:57:15.467Z,100528.75
2022-08-26T14:00:18.302Z,100524.25
2022-08-26T14:03:21.530Z,100521.63
2022-08-26T14:06:23.963Z,100520.47
2022-08-26T14:09:26.177Z,100522.28
2022-08-26T14:12:29.344Z,100514.72
2022-08-26T14:15:35.986Z,100507.28
2022-08-26T14:18:42.573Z,100504.19
2022-08-26T14:21:46.574Z,100512.09
2022-08-26T14:24:49.546Z,100509.72
2022-08-26T14:27:53.458Z,100499.28
2022-08-26T14:30:58.240Z,100506.72
2022-08-26T14:34:03.752Z,100509.03
2022-08-26T14:37:07.742Z,100507.31
2022-08-26T14:40:11.994Z,100501.81
2022-08-26T14:43:17.348Z,100494.38
2022-08-26T14:46:19.515Z,100489.63
2022-08-26T14:49:23.815Z,100495.47
2022-08-26T14:52:26.280Z,100491.44
2022-08-26T14:55:29.338Z,100491.13
2022-08-26T14:58:34.854Z,100485.88
2022-08-26T15:01:37.758Z,100483.91
2022-08-26T15:04:40.571Z,100472.69
2022-08-26T15:07:43.145Z,100476.19
2022-08-26T15:10:45.421Z,100478.56
2022-08-26T15:13:47.935Z,100473.41
2022-08-26T15:16:53.198Z,100463.00
2022-08-26T15:19:55.540Z,100464.06
2022-08-26T15:22:58.985Z,100464.53
2022-08-26T15:26:10.030Z,100462.78
2022-08-26T15:29:12.742Z,100463.13
2022-08-26T15:32:15.156Z,100461.66
2022-08-26T15:35:17.281Z,100460.25
2022-08-26T15:38:19.648Z,100450.78
2022-08-26T15:41:22.678Z,100453.81
2022-08-26T15:44:25.853Z,100450.50
2022-08-26T15:47:27.857Z,100446.47
2022-08-26T15:50:31.351Z,100440.78
2022-08-26T15:53:34.894Z,100447.66
2022-08-26T15:56:38.711Z,100447.00
2022-08-26T15:59:40.901Z,100449.06
2022-08-26T16:02:43.515Z,100449.09
2022-08-26T16:05:47.061Z,100437.28
2022-08-26T16:08:50.131Z,100440.03
2022-08-26T16:11:56.220Z,100442.34
2022-08-26T16:14:58.552Z,100436.88
2022-08-26T16:18:02.358Z,100445.59
2022-08-26T16:21:13.162Z,100441.72
2022-08-26T16:24:16.464Z,100439.63
2022-08-26T16:27:18.776Z,100441.06
2022-08-26T16:30:25.546Z,100432.38
2022-08-26T16:33:29.735Z,100437.88
2022-08-26T16:36:32.198Z,100440.88
2022-08-26T16:39:34.625Z,100444.94
2022-08-26T16:42:42.379Z,100435.38
2022-08-26T16:45:44.793Z,100440.59
2022-08-26T16:48:46.932Z,100441.16
2022-08-26T16:51:49.509Z,100441.47
2022-08-26T16:54:52.565Z,100445.53
2022-08-26T16:57:55.048Z,100439.28
2022-08-26T17:00:57.455Z,100443.22
2022-08-26T17:03:59.801Z,100449.78
2022-08-26T17:07:02.005Z,100452.53
2022-08-26T17:10:06.640Z,100451.06
2022-08-26T17:13:08.882Z,100454.47
2022-08-26T17:16:12.609Z,100456.53
2022-08-26T17:19:14.686Z,100444.06
2022-08-26T17:22:17.512Z,100450.00
2022-08-26T17:25:23.945Z,100454.09
2022-08-26T17:28:26.225Z,100459.31
2022-08-26T17:31:28.351Z,100455.16
2022-08-26T17:34:30.639Z,100462.84
2022-08-26T17:37:34.641Z,100458.66
2022-08-26T17:40:37.094Z,100459.06
2022-08-26T17:43:40.155Z,100458.38
2022-08-26T17:46:43.575Z,100467.75
2022-08-26T17:49:45.789Z,100466.38
2022-08-26T17:52:48.159Z,100479.84
2022-08-26T17:55:51.160Z,100476.59
2022-08-26T17:58:56.411Z,100475.44
2022-08-26T18:01:59.158Z,100469.03
2022-08-26T18:05:01.498Z,100467.03
2022-08-26T18:08:03.829Z,100463.19
2022-08-26T18:11:15.830Z,100473.69
2022-08-26T18:14:17.902Z,100475.81
2022-08-26T18:17:20.181Z,100481.59
2022-08-26T18:20:22.313Z,100474.59
2022-08-26T18:23:24.811Z,100475.97
2022-08-26T18:26:32.290Z,100474.59
2022-08-26T18:29:34.749Z,100478.63
2022-08-26T18:32:37.106Z,100478.63
2022-08-26T18:35:40.582Z,100479.72
2022-08-26T18:38:45.556Z,100479.06
2022-08-26T18:41:52.555Z,100483.50
2022-08-26T18:44:54.549Z,100487.13
2022-08-26T18:47:57.424Z,100487.66
2022-08-26T18:51:00.177Z,100483.94
2022-08-26T18:54:05.634Z,100486.91
2022-08-26T18:57:07.796Z,100493.19
2022-08-26T19:00:11.735Z,100485.84
2022-08-26T19:03:19.108Z,100496.44
2022-08-26T19:06:23.353Z,100493.63
2022-08-26T19:09:26.402Z,100494.31
2022-08-26T19:12:29.601Z,100497.66
2022-08-26T19:15:41.441Z,100491.25
2022-08-26T19:18:44.528Z,100496.31
2022-08-26T19:21:47.158Z,100495.28
2022-08-26T19:24:49.417Z,100488.19
2022-08-26T19:27:51.444Z,100505.41
2022-08-26T19:30:53.849Z,100488.69
2022-08-26T19:33:57.915Z,100499.16
2022-08-26T19:37:00.660Z,100501.75
2022-08-26T19:40:02.908Z,100499.50
2022-08-26T19:43:05.383Z,100495.22
2022-08-26T19:46:16.092Z,100499.28
2022-08-26T19:49:18.682Z,100502.41
2022-08-26T19:52:23.203Z,100505.66
2022-08-26T19:55:32.212Z,100496.97
2022-08-26T19:58:35.418Z,100503.03
2022-08-26T20:01:38.245Z,100499.03
2022-08-26T20:04:41.936Z,100498.69
2022-08-26T20:07:44.364Z,100506.28
2022-08-26T20:10:48.201Z,100501.16
2022-08-26T20:13:55.279Z,100500.78
2022-08-26T20:16:57.505Z,100506.38
2022-08-26T20:20:31.616Z,100504.22
2022-08-26T20:23:37.101Z,100510.09
2022-08-26T20:26:41.818Z,100511.19
2022-08-26T20:29:44.221Z,100504.16
2022-08-26T20:32:46.738Z,100508.38
2022-08-26T20:35:48.805Z,100512.41
2022-08-26T20:38:51.145Z,100520.91
2022-08-26T20:41:53.407Z,100515.91
2022-08-26T20:44:55.726Z,100520.34
2022-08-26T20:47:58.125Z,100525.00
2022-08-26T20:51:01.314Z,100524.19
2022-08-26T20:54:05.394Z,100528.88
2022-08-26T20:57:07.824Z,100520.56
2022-08-26T21:00:12.837Z,100518.03
2022-08-26T21:03:16.558Z,100531.06
2022-08-26T21:06:18.998Z,100529.13
2022-08-26T21:09:24.685Z,100522.84
2022-08-26T21:12:26.929Z,100515.59
2022-08-26T21:15:29.705Z,100516.56
2022-08-26T21:18:33.773Z,100524.69
2022-08-26T21:21:36.539Z,100522.28
2022-08-26T21:24:38.653Z,100512.41
2022-08-26T21:27:41.046Z,100526.41
2022-08-26T21:30:43.215Z,100524.84
2022-08-26T21:33:45.717Z,100516.94
2022-08-26T21:36:48.552Z,100526.81
2022-08-26T21:39:55.640Z,100521.50
2022-08-26T21:42:57.773Z,100527.06
2022-08-26T21:46:11.762Z,100525.47
2022-08-26T21:49:15.973Z,100524.66
2022-08-26T21:52:18.300Z,100522.06
2022-08-26T21:55:20.368Z,100524.03
2022-08-26T21:58:22.830Z,100517.97
2022-08-26T22:01:27.347Z,100514.31
2022-08-26T22:04:29.704Z,100512.78
2022-08-26T22:07:31.917Z,100513.03
2022-08-26T22:10:34.352Z,100512.31
2022-08-26T22:13:38.381Z,100517.06
2022-08-26T22:16:40.867Z,100516.34
2022-08-26T22:19:45.736Z,100520.09
2022-08-26T22:22:49.269Z,100527.50
2022-08-26T22:25:51.729Z,100528.63
2022-08-26T22:28:58.558Z,100526.16
2022-08-26T22:32:01.505Z,100522.88
2022-08-26T22:35:11.405Z,100519.53
2022-08-26T22:38:27.962Z,100525.22
2022-08-26T22:41:30.330Z,100529.03
2022-08-26T22:44:37.545Z,100517.63
2022-08-26T22:47:40.499Z,100522.31
2022-08-26T22:50:43.694Z,100516.44
2022-08-26T22:53:46.300Z,100521.84
2022-08-26T22:56:48.677Z,100521.13
2022-08-26T22:59:51.051Z,100522.00
2022-08-26T23:02:53.227Z,100516.91
2022-08-26T23:05:56.004Z,100516.22
2022-08-26T23:08:58.212Z,100510.16
2022-08-26T23:12:00.586Z,100511.91
2022-08-26T23:15:02.952Z,100510.16
2022-08-26T23:18:05.514Z,100513.00
2022-08-26T23:21:08.035Z,100509.03
2022-08-26T23:24:11.012Z,100504.13
2022-08-26T23:27:13.179Z,100502.66
2022-08-26T23:30:20.003Z,100502.13
2022-08-26T23:33:22.154Z,100495.44
2022-08-26T23:36:24.700Z,100500.97
2022-08-26T23:39:27.134Z,100490.63
2022-08-26T23:42:29.492Z,100493.34
2022-08-26T23:45:33.102Z,100485.25
2022-08-26T23:48:35.420Z,100485.41
2022-08-26T23:51:56.765Z,100482.28
2022-08-26T23:54:59.229Z,100484.06
2022-08-26T23:58:01.785Z,100470.59
